sensor_id;sensor_type;location;lat;lon;timestamp;P1;durP1;ratioP1;P2;durP2;ratioP2
8944;SDS011;4507;40.232;29.132;2023-05-10T00:00:15;29.07;;;24.30;;
8944;SDS011;4507;40.232;29.132;2023-05-10T00:02:44;26.73;;;22.23;;
8944;SDS011;4507;40.232;29.132;2023-05-10T00:05:14;41.00;;;34.33;;
8944;SDS011;4507;40.232;29.132;2023-05-10T00:07:43;55.90;;;50.13;;
8944;SDS011;4507;40.232;29.132;2023-05-10T00:10:12;76.30;;;68.50;;
8944;SDS011;4507;40.232;29.132;2023-05-10T00:12:43;82.93;;;74.53;;
8944;SDS011;4507;40.232;29.132;2023-05-10T00:15:12;86.13;;;77.93;;
8944;SDS011;4507;40.232;29.132;2023-05-10T00:17:41;79.03;;;71.47;;
8944;SDS011;4507;40.232;29.132;2023-05-10T00:20:10;60.20;;;54.57;;
8944;SDS011;4507;40.232;29.132;2023-05-10T00:22:40;69.33;;;62.67;;
8944;SDS011;4507;40.232;29.132;2023-05-10T00:25:09;65.80;;;59.13;;
8944;SDS011;4507;40.232;29.132;2023-05-10T00:27:38;61.37;;;55.30;;
8944;SDS011;4507;40.232;29.132;2023-05-10T00:30:09;64.60;;;58.10;;
8944;SDS011;4507;40.232;29.132;2023-05-10T00:32:38;70.30;;;63.00;;
8944;SDS011;4507;40.232;29.132;2023-05-10T00:35:07;67.97;;;58.33;;
8944;SDS011;4507;40.232;29.132;2023-05-10T00:37:36;75.70;;;66.37;;
8944;SDS011;4507;40.232;29.132;2023-05-10T00:40:06;60.53;;;48.57;;
8944;SDS011;4507;40.232;29.132;2023-05-10T00:42:35;49.83;;;41.80;;
8944;SDS011;4507;40.232;29.132;2023-05-10T00:45:06;27.67;;;19.40;;
8944;SDS011;4507;40.232;29.132;2023-05-10T00:47:38;36.53;;;30.00;;
8944;SDS011;4507;40.232;29.132;2023-05-10T00:50:08;38.07;;;31.10;;
8944;SDS011;4507;40.232;29.132;2023-05-10T00:52:37;15.97;;;12.43;;
8944;SDS011;4507;40.232;29.132;2023-05-10T00:55:07;17.63;;;13.50;;
8944;SDS011;4507;40.232;29.132;2023-05-10T00:57:37;5.27;;;4.03;;
8944;SDS011;4507;40.232;29.132;2023-05-10T01:00:07;7.13;;;4.50;;
8944;SDS011;4507;40.232;29.132;2023-05-10T01:02:39;5.03;;;3.00;;
8944;SDS011;4507;40.232;29.132;2023-05-10T01:05:09;2.47;;;2.27;;
8944;SDS011;4507;40.232;29.132;2023-05-10T01:07:38;3.33;;;2.30;;
8944;SDS011;4507;40.232;29.132;2023-05-10T01:10:09;3.40;;;2.43;;
8944;SDS011;4507;40.232;29.132;2023-05-10T01:12:39;3.23;;;2.10;;
8944;SDS011;4507;40.232;29.132;2023-05-10T01:15:12;3.37;;;2.40;;
8944;SDS011;4507;40.232;29.132;2023-05-10T01:17:44;5.80;;;2.67;;
8944;SDS011;4507;40.232;29.132;2023-05-10T01:20:35;2.50;;;2.30;;
8944;SDS011;4507;40.232;29.132;2023-05-10T01:23:16;4.90;;;2.83;;
8944;SDS011;4507;40.232;29.132;2023-05-10T01:29:11;6.83;;;4.20;;
8944;SDS011;4507;40.232;29.132;2023-05-10T01:34:46;6.40;;;3.27;;
8944;SDS011;4507;40.232;29.132;2023-05-10T01:37:22;6.43;;;3.10;;
8944;SDS011;4507;40.232;29.132;2023-05-10T01:39:58;2.53;;;2.27;;
8944;SDS011;4507;40.232;29.132;2023-05-10T01:42:32;3.93;;;2.57;;
8944;SDS011;4507;40.232;29.132;2023-05-10T01:45:11;3.63;;;2.27;;
8944;SDS011;4507;40.232;29.132;2023-05-10T01:47:46;3.07;;;2.13;;
8944;SDS011;4507;40.232;29.132;2023-05-10T01:50:19;3.93;;;2.20;;
8944;SDS011;4507;40.232;29.132;2023-05-10T01:52:56;3.40;;;2.20;;
8944;SDS011;4507;40.232;29.132;2023-05-10T01:55:28;3.27;;;2.23;;
8944;SDS011;4507;40.232;29.132;2023-05-10T01:58:01;2.57;;;2.37;;
8944;SDS011;4507;40.232;29.132;2023-05-10T02:00:32;5.57;;;3.77;;
8944;SDS011;4507;40.232;29.132;2023-05-10T02:03:05;5.87;;;3.53;;
8944;SDS011;4507;40.232;29.132;2023-05-10T02:05:36;6.87;;;4.63;;
8944;SDS011;4507;40.232;29.132;2023-05-10T02:08:07;5.57;;;3.67;;
8944;SDS011;4507;40.232;29.132;2023-05-10T02:10:37;5.87;;;3.53;;
8944;SDS011;4507;40.232;29.132;2023-05-10T02:13:07;3.33;;;3.03;;
8944;SDS011;4507;40.232;29.132;2023-05-10T02:15:38;3.20;;;2.50;;
8944;SDS011;4507;40.232;29.132;2023-05-10T02:18:12;3.77;;;2.50;;
8944;SDS011;4507;40.232;29.132;2023-05-10T02:20:43;2.57;;;2.37;;
8944;SDS011;4507;40.232;29.132;2023-05-10T02:23:14;2.93;;;2.20;;
8944;SDS011;4507;40.232;29.132;2023-05-10T02:25:45;2.47;;;2.20;;
8944;SDS011;4507;40.232;29.132;2023-05-10T02:28:19;3.47;;;2.27;;
8944;SDS011;4507;40.232;29.132;2023-05-10T02:30:50;3.73;;;2.00;;
8944;SDS011;4507;40.232;29.132;2023-05-10T02:33:21;2.70;;;2.20;;
8944;SDS011;4507;40.232;29.132;2023-05-10T02:35:51;2.83;;;2.10;;
8944;SDS011;4507;40.232;29.132;2023-05-10T02:38:21;3.63;;;2.40;;
8944;SDS011;4507;40.232;29.132;2023-05-10T02:40:52;4.13;;;2.20;;
8944;SDS011;4507;40.232;29.132;2023-05-10T02:43:21;2.40;;;2.20;;
8944;SDS011;4507;40.232;29.132;2023-05-10T02:45:52;3.30;;;2.43;;
8944;SDS011;4507;40.232;29.132;2023-05-10T02:48:23;2.50;;;2.30;;
8944;SDS011;4507;40.232;29.132;2023-05-10T02:50:52;3.07;;;2.60;;
8944;SDS011;4507;40.232;29.132;2023-05-10T02:53:31;3.20;;;2.90;;
8944;SDS011;4507;40.232;29.132;2023-05-10T02:56:04;5.13;;;3.13;;
8944;SDS011;4507;40.232;29.132;2023-05-10T02:58:37;5.30;;;3.47;;
8944;SDS011;4507;40.232;29.132;2023-05-10T03:01:07;11.00;;;6.43;;
8944;SDS011;4507;40.232;29.132;2023-05-10T03:03:39;9.67;;;4.50;;
8944;SDS011;4507;40.232;29.132;2023-05-10T03:06:09;4.83;;;3.97;;
8944;SDS011;4507;40.232;29.132;2023-05-10T03:08:38;3.60;;;3.20;;
8944;SDS011;4507;40.232;29.132;2023-05-10T03:11:17;4.47;;;3.70;;
8944;SDS011;4507;40.232;29.132;2023-05-10T03:14:07;5.73;;;3.10;;
8944;SDS011;4507;40.232;29.132;2023-05-10T03:16:45;4.17;;;3.10;;
8944;SDS011;4507;40.232;29.132;2023-05-10T03:19:29;5.30;;;2.97;;
8944;SDS011;4507;40.232;29.132;2023-05-10T03:22:08;5.27;;;2.97;;
8944;SDS011;4507;40.232;29.132;2023-05-10T03:24:41;7.07;;;2.80;;
8944;SDS011;4507;40.232;29.132;2023-05-10T03:27:11;5.43;;;2.83;;
8944;SDS011;4507;40.232;29.132;2023-05-10T03:29:41;3.10;;;2.40;;
8944;SDS011;4507;40.232;29.132;2023-05-10T03:32:13;6.83;;;3.30;;
8944;SDS011;4507;40.232;29.132;2023-05-10T03:34:45;4.63;;;2.97;;
8944;SDS011;4507;40.232;29.132;2023-05-10T03:37:14;7.60;;;3.10;;
8944;SDS011;4507;40.232;29.132;2023-05-10T03:39:44;5.57;;;3.10;;
8944;SDS011;4507;40.232;29.132;2023-05-10T03:42:13;8.30;;;2.70;;
8944;SDS011;4507;40.232;29.132;2023-05-10T03:44:44;4.60;;;2.70;;
8944;SDS011;4507;40.232;29.132;2023-05-10T03:47:19;5.50;;;2.30;;
8944;SDS011;4507;40.232;29.132;2023-05-10T03:49:50;5.27;;;2.60;;
8944;SDS011;4507;40.232;29.132;2023-05-10T03:52:19;9.80;;;2.93;;
8944;SDS011;4507;40.232;29.132;2023-05-10T03:54:48;3.23;;;2.60;;
8944;SDS011;4507;40.232;29.132;2023-05-10T03:57:17;3.30;;;2.30;;
8944;SDS011;4507;40.232;29.132;2023-05-10T03:59:46;3.13;;;2.00;;
8944;SDS011;4507;40.232;29.132;2023-05-10T04:02:16;4.27;;;2.17;;
8944;SDS011;4507;40.232;29.132;2023-05-10T04:04:45;4.67;;;2.40;;
8944;SDS011;4507;40.232;29.132;2023-05-10T04:07:16;6.80;;;2.40;;
8944;SDS011;4507;40.232;29.132;2023-05-10T04:09:46;3.10;;;2.10;;
8944;SDS011;4507;40.232;29.132;2023-05-10T04:12:15;3.80;;;2.30;;
8944;SDS011;4507;40.232;29.132;2023-05-10T04:14:44;8.70;;;2.73;;
8944;SDS011;4507;40.232;29.132;2023-05-10T04:17:13;4.23;;;2.10;;
8944;SDS011;4507;40.232;29.132;2023-05-10T04:19:42;6.37;;;2.27;;
8944;SDS011;4507;40.232;29.132;2023-05-10T04:22:11;4.80;;;2.20;;
8944;SDS011;4507;40.232;29.132;2023-05-10T04:24:41;4.37;;;2.27;;
8944;SDS011;4507;40.232;29.132;2023-05-10T04:27:10;2.93;;;2.30;;
8944;SDS011;4507;40.232;29.132;2023-05-10T04:29:39;2.30;;;2.10;;
8944;SDS011;4507;40.232;29.132;2023-05-10T04:32:08;5.07;;;2.40;;
8944;SDS011;4507;40.232;29.132;2023-05-10T04:34:38;3.70;;;2.30;;
8944;SDS011;4507;40.232;29.132;2023-05-10T04:37:07;5.50;;;2.40;;
8944;SDS011;4507;40.232;29.132;2023-05-10T04:39:35;2.30;;;2.10;;
8944;SDS011;4507;40.232;29.132;2023-05-10T04:42:27;5.27;;;2.30;;
8944;SDS011;4507;40.232;29.132;2023-05-10T04:44:57;4.97;;;2.10;;
8944;SDS011;4507;40.232;29.132;2023-05-10T04:47:26;4.40;;;1.97;;
8944;SDS011;4507;40.232;29.132;2023-05-10T04:49:55;5.67;;;1.93;;
8944;SDS011;4507;40.232;29.132;2023-05-10T04:52:24;8.97;;;2.50;;
8944;SDS011;4507;40.232;29.132;2023-05-10T04:54:53;7.97;;;2.60;;
8944;SDS011;4507;40.232;29.132;2023-05-10T04:57:22;8.70;;;1.97;;
8944;SDS011;4507;40.232;29.132;2023-05-10T04:59:52;4.73;;;2.00;;
8944;SDS011;4507;40.232;29.132;2023-05-10T05:02:22;6.60;;;1.93;;
8944;SDS011;4507;40.232;29.132;2023-05-10T05:04:51;2.90;;;2.00;;
8944;SDS011;4507;40.232;29.132;2023-05-10T05:07:20;7.97;;;2.40;;
8944;SDS011;4507;40.232;29.132;2023-05-10T05:09:49;5.73;;;1.93;;
8944;SDS011;4507;40.232;29.132;2023-05-10T05:12:18;5.57;;;2.73;;
8944;SDS011;4507;40.232;29.132;2023-05-10T05:14:47;11.10;;;2.90;;
8944;SDS011;4507;40.232;29.132;2023-05-10T05:17:18;8.37;;;2.50;;
8944;SDS011;4507;40.232;29.132;2023-05-10T05:19:47;4.13;;;2.10;;
8944;SDS011;4507;40.232;29.132;2023-05-10T05:22:15;12.10;;;3.30;;
8944;SDS011;4507;40.232;29.132;2023-05-10T05:24:46;12.47;;;3.10;;
8944;SDS011;4507;40.232;29.132;2023-05-10T05:27:16;6.77;;;2.30;;
8944;SDS011;4507;40.232;29.132;2023-05-10T05:29:52;5.27;;;2.20;;
8944;SDS011;4507;40.232;29.132;2023-05-10T05:32:22;6.60;;;2.77;;
8944;SDS011;4507;40.232;29.132;2023-05-10T05:34:52;9.20;;;4.03;;
8944;SDS011;4507;40.232;29.132;2023-05-10T05:37:21;10.80;;;2.27;;
8944;SDS011;4507;40.232;29.132;2023-05-10T05:39:51;7.43;;;2.17;;
8944;SDS011;4507;40.232;29.132;2023-05-10T05:42:40;7.13;;;2.30;;
8944;SDS011;4507;40.232;29.132;2023-05-10T05:45:09;7.53;;;2.57;;
8944;SDS011;4507;40.232;29.132;2023-05-10T05:47:41;4.07;;;1.77;;
8944;SDS011;4507;40.232;29.132;2023-05-10T05:50:10;7.10;;;2.73;;
8944;SDS011;4507;40.232;29.132;2023-05-10T05:52:39;13.30;;;2.23;;
8944;SDS011;4507;40.232;29.132;2023-05-10T05:55:08;8.30;;;2.30;;
8944;SDS011;4507;40.232;29.132;2023-05-10T05:57:38;4.90;;;1.90;;
8944;SDS011;4507;40.232;29.132;2023-05-10T06:00:08;7.23;;;2.40;;
8944;SDS011;4507;40.232;29.132;2023-05-10T06:02:40;8.80;;;2.60;;
8944;SDS011;4507;40.232;29.132;2023-05-10T06:05:10;11.00;;;2.40;;
8944;SDS011;4507;40.232;29.132;2023-05-10T06:07:41;2.80;;;1.87;;
8944;SDS011;4507;40.232;29.132;2023-05-10T06:10:10;9.90;;;2.40;;
8944;SDS011;4507;40.232;29.132;2023-05-10T06:12:39;7.27;;;3.10;;
8944;SDS011;4507;40.232;29.132;2023-05-10T06:15:11;14.47;;;4.50;;
8944;SDS011;4507;40.232;29.132;2023-05-10T06:17:42;3.67;;;2.27;;
8944;SDS011;4507;40.232;29.132;2023-05-10T06:20:12;21.27;;;8.67;;
8944;SDS011;4507;40.232;29.132;2023-05-10T06:22:41;7.03;;;3.00;;
8944;SDS011;4507;40.232;29.132;2023-05-10T06:25:10;15.83;;;4.70;;
8944;SDS011;4507;40.232;29.132;2023-05-10T06:27:41;6.00;;;3.00;;
8944;SDS011;4507;40.232;29.132;2023-05-10T06:30:15;11.17;;;3.70;;
8944;SDS011;4507;40.232;29.132;2023-05-10T06:32:45;23.93;;;16.77;;
8944;SDS011;4507;40.232;29.132;2023-05-10T06:35:14;20.30;;;9.47;;
8944;SDS011;4507;40.232;29.132;2023-05-10T06:37:44;48.07;;;32.83;;
8944;SDS011;4507;40.232;29.132;2023-05-10T06:40:14;31.47;;;17.00;;
8944;SDS011;4507;40.232;29.132;2023-05-10T06:42:43;41.97;;;12.50;;
8944;SDS011;4507;40.232;29.132;2023-05-10T06:45:13;25.23;;;10.80;;
8944;SDS011;4507;40.232;29.132;2023-05-10T06:47:43;30.07;;;14.50;;
8944;SDS011;4507;40.232;29.132;2023-05-10T06:50:14;15.03;;;9.13;;
8944;SDS011;4507;40.232;29.132;2023-05-10T06:52:43;37.57;;;20.80;;
8944;SDS011;4507;40.232;29.132;2023-05-10T06:55:12;35.30;;;23.83;;
8944;SDS011;4507;40.232;29.132;2023-05-10T06:57:41;18.97;;;11.67;;
8944;SDS011;4507;40.232;29.132;2023-05-10T07:00:11;28.83;;;13.97;;
8944;SDS011;4507;40.232;29.132;2023-05-10T07:02:41;17.70;;;9.43;;
8944;SDS011;4507;40.232;29.132;2023-05-10T07:05:11;16.30;;;7.37;;
8944;SDS011;4507;40.232;29.132;2023-05-10T07:07:42;27.93;;;16.53;;
8944;SDS011;4507;40.232;29.132;2023-05-10T07:10:12;17.70;;;10.20;;
8944;SDS011;4507;40.232;29.132;2023-05-10T07:12:45;28.47;;;18.23;;
8944;SDS011;4507;40.232;29.132;2023-05-10T07:15:14;21.53;;;15.67;;
8944;SDS011;4507;40.232;29.132;2023-05-10T07:17:44;36.47;;;20.60;;
8944;SDS011;4507;40.232;29.132;2023-05-10T07:20:13;27.33;;;13.23;;
8944;SDS011;4507;40.232;29.132;2023-05-10T07:22:44;22.73;;;12.00;;
8944;SDS011;4507;40.232;29.132;2023-05-10T07:25:12;15.27;;;8.57;;
8944;SDS011;4507;40.232;29.132;2023-05-10T07:27:42;21.73;;;6.60;;
8944;SDS011;4507;40.232;29.132;2023-05-10T07:30:11;13.10;;;5.70;;
8944;SDS011;4507;40.232;29.132;2023-05-10T07:32:41;32.17;;;13.27;;
8944;SDS011;4507;40.232;29.132;2023-05-10T07:35:11;40.93;;;17.07;;
8944;SDS011;4507;40.232;29.132;2023-05-10T07:37:40;20.17;;;5.27;;
8944;SDS011;4507;40.232;29.132;2023-05-10T07:40:11;19.57;;;6.43;;
8944;SDS011;4507;40.232;29.132;2023-05-10T07:42:40;7.03;;;2.80;;
8944;SDS011;4507;40.232;29.132;2023-05-10T07:45:09;8.90;;;3.83;;
8944;SDS011;4507;40.232;29.132;2023-05-10T07:47:38;10.17;;;2.67;;
8944;SDS011;4507;40.232;29.132;2023-05-10T07:50:07;10.47;;;3.27;;
8944;SDS011;4507;40.232;29.132;2023-05-10T07:52:36;14.40;;;3.03;;
8944;SDS011;4507;40.232;29.132;2023-05-10T07:55:06;9.30;;;3.47;;
8944;SDS011;4507;40.232;29.132;2023-05-10T07:57:37;10.20;;;4.17;;
8944;SDS011;4507;40.232;29.132;2023-05-10T08:00:07;11.10;;;3.30;;
8944;SDS011;4507;40.232;29.132;2023-05-10T08:02:39;18.37;;;4.10;;
8944;SDS011;4507;40.232;29.132;2023-05-10T08:05:09;22.20;;;12.77;;
8944;SDS011;4507;40.232;29.132;2023-05-10T08:07:38;28.83;;;18.40;;
8944;SDS011;4507;40.232;29.132;2023-05-10T08:10:08;13.87;;;4.53;;
8944;SDS011;4507;40.232;29.132;2023-05-10T08:12:39;15.83;;;5.10;;
8944;SDS011;4507;40.232;29.132;2023-05-10T08:15:09;52.87;;;40.73;;
8944;SDS011;4507;40.232;29.132;2023-05-10T08:17:38;45.93;;;39.43;;
8944;SDS011;4507;40.232;29.132;2023-05-10T08:20:08;23.20;;;11.77;;
8944;SDS011;4507;40.232;29.132;2023-05-10T08:22:39;20.43;;;11.60;;
8944;SDS011;4507;40.232;29.132;2023-05-10T08:25:08;23.40;;;18.20;;
8944;SDS011;4507;40.232;29.132;2023-05-10T08:27:37;20.60;;;16.63;;
8944;SDS011;4507;40.232;29.132;2023-05-10T08:30:08;14.80;;;12.37;;
8944;SDS011;4507;40.232;29.132;2023-05-10T08:32:38;54.63;;;44.70;;
8944;SDS011;4507;40.232;29.132;2023-05-10T08:35:08;23.80;;;8.17;;
8944;SDS011;4507;40.232;29.132;2023-05-10T08:37:37;6.97;;;3.73;;
8944;SDS011;4507;40.232;29.132;2023-05-10T08:40:06;12.83;;;4.80;;
8944;SDS011;4507;40.232;29.132;2023-05-10T08:42:39;10.17;;;3.90;;
8944;SDS011;4507;40.232;29.132;2023-05-10T08:45:13;11.70;;;3.70;;
8944;SDS011;4507;40.232;29.132;2023-05-10T08:47:44;13.40;;;6.80;;
8944;SDS011;4507;40.232;29.132;2023-05-10T08:50:13;21.20;;;10.67;;
8944;SDS011;4507;40.232;29.132;2023-05-10T08:52:44;33.33;;;17.57;;
8944;SDS011;4507;40.232;29.132;2023-05-10T08:55:16;64.83;;;47.70;;
8944;SDS011;4507;40.232;29.132;2023-05-10T08:57:46;42.40;;;26.40;;
8944;SDS011;4507;40.232;29.132;2023-05-10T09:00:16;22.70;;;11.63;;
8944;SDS011;4507;40.232;29.132;2023-05-10T09:02:46;49.73;;;43.80;;
8944;SDS011;4507;40.232;29.132;2023-05-10T09:05:17;49.47;;;39.13;;
8944;SDS011;4507;40.232;29.132;2023-05-10T09:07:46;32.43;;;24.90;;
8944;SDS011;4507;40.232;29.132;2023-05-10T09:10:15;50.50;;;28.47;;
8944;SDS011;4507;40.232;29.132;2023-05-10T09:12:45;55.10;;;35.77;;
8944;SDS011;4507;40.232;29.132;2023-05-10T09:15:16;21.07;;;11.10;;
8944;SDS011;4507;40.232;29.132;2023-05-10T09:17:47;28.60;;;20.83;;
8944;SDS011;4507;40.232;29.132;2023-05-10T09:20:18;50.20;;;36.57;;
8944;SDS011;4507;40.232;29.132;2023-05-10T09:22:47;25.57;;;16.57;;
8944;SDS011;4507;40.232;29.132;2023-05-10T09:25:16;12.03;;;5.17;;
8944;SDS011;4507;40.232;29.132;2023-05-10T09:27:47;8.23;;;4.97;;
8944;SDS011;4507;40.232;29.132;2023-05-10T09:30:17;21.47;;;9.20;;
8944;SDS011;4507;40.232;29.132;2023-05-10T09:32:51;22.27;;;16.07;;
8944;SDS011;4507;40.232;29.132;2023-05-10T09:35:21;25.50;;;14.67;;
8944;SDS011;4507;40.232;29.132;2023-05-10T09:38:03;34.80;;;17.57;;
8944;SDS011;4507;40.232;29.132;2023-05-10T09:40:33;49.97;;;12.63;;
8944;SDS011;4507;40.232;29.132;2023-05-10T09:43:04;21.13;;;18.93;;
8944;SDS011;4507;40.232;29.132;2023-05-10T09:45:35;38.30;;;31.90;;
8944;SDS011;4507;40.232;29.132;2023-05-10T09:48:05;29.67;;;18.97;;
8944;SDS011;4507;40.232;29.132;2023-05-10T09:50:34;23.60;;;14.43;;
8944;SDS011;4507;40.232;29.132;2023-05-10T09:53:03;19.70;;;14.73;;
8944;SDS011;4507;40.232;29.132;2023-05-10T09:55:43;21.10;;;15.33;;
8944;SDS011;4507;40.232;29.132;2023-05-10T09:58:14;19.50;;;14.87;;
8944;SDS011;4507;40.232;29.132;2023-05-10T10:00:43;21.17;;;13.33;;
8944;SDS011;4507;40.232;29.132;2023-05-10T10:03:15;21.87;;;12.73;;
8944;SDS011;4507;40.232;29.132;2023-05-10T10:05:45;29.57;;;16.33;;
8944;SDS011;4507;40.232;29.132;2023-05-10T10:08:15;40.00;;;18.43;;
8944;SDS011;4507;40.232;29.132;2023-05-10T10:10:46;35.60;;;17.13;;
8944;SDS011;4507;40.232;29.132;2023-05-10T10:13:18;19.60;;;13.87;;
8944;SDS011;4507;40.232;29.132;2023-05-10T10:15:47;29.50;;;15.87;;
8944;SDS011;4507;40.232;29.132;2023-05-10T10:18:18;15.87;;;10.70;;
8944;SDS011;4507;40.232;29.132;2023-05-10T10:20:50;22.47;;;12.20;;
8944;SDS011;4507;40.232;29.132;2023-05-10T10:23:20;30.63;;;15.43;;
8944;SDS011;4507;40.232;29.132;2023-05-10T10:25:50;19.50;;;12.20;;
8944;SDS011;4507;40.232;29.132;2023-05-10T10:28:24;24.13;;;12.80;;
8944;SDS011;4507;40.232;29.132;2023-05-10T10:31:15;14.53;;;9.67;;
8944;SDS011;4507;40.232;29.132;2023-05-10T10:33:55;16.97;;;9.50;;
8944;SDS011;4507;40.232;29.132;2023-05-10T10:36:28;34.03;;;18.80;;
8944;SDS011;4507;40.232;29.132;2023-05-10T10:39:00;12.77;;;8.90;;
8944;SDS011;4507;40.232;29.132;2023-05-10T10:41:31;16.90;;;10.37;;
8944;SDS011;4507;40.232;29.132;2023-05-10T10:47:04;16.10;;;8.20;;
8944;SDS011;4507;40.232;29.132;2023-05-10T10:49:42;11.70;;;7.50;;
8944;SDS011;4507;40.232;29.132;2023-05-10T10:52:21;13.03;;;7.60;;
8944;SDS011;4507;40.232;29.132;2023-05-10T10:55:12;10.37;;;8.07;;
8944;SDS011;4507;40.232;29.132;2023-05-10T10:57:46;12.67;;;7.60;;
8944;SDS011;4507;40.232;29.132;2023-05-10T11:00:25;10.10;;;8.33;;
8944;SDS011;4507;40.232;29.132;2023-05-10T11:02:56;16.03;;;8.27;;
8944;SDS011;4507;40.232;29.132;2023-05-10T11:08:15;17.93;;;6.80;;
8944;SDS011;4507;40.232;29.132;2023-05-10T11:10:50;18.47;;;8.07;;
8944;SDS011;4507;40.232;29.132;2023-05-10T11:13:42;51.40;;;14.07;;
8944;SDS011;4507;40.232;29.132;2023-05-10T11:16:18;28.07;;;11.30;;
8944;SDS011;4507;40.232;29.132;2023-05-10T11:18:54;30.10;;;10.17;;
8944;SDS011;4507;40.232;29.132;2023-05-10T11:21:28;13.60;;;8.10;;
8944;SDS011;4507;40.232;29.132;2023-05-10T11:24:22;18.37;;;10.50;;
8944;SDS011;4507;40.232;29.132;2023-05-10T11:26:56;14.30;;;8.03;;
8944;SDS011;4507;40.232;29.132;2023-05-10T11:29:25;10.10;;;7.40;;
8944;SDS011;4507;40.232;29.132;2023-05-10T11:31:57;15.57;;;8.73;;
8944;SDS011;4507;40.232;29.132;2023-05-10T11:34:28;12.63;;;8.20;;
8944;SDS011;4507;40.232;29.132;2023-05-10T11:37:00;10.83;;;8.53;;
8944;SDS011;4507;40.232;29.132;2023-05-10T11:39:30;9.60;;;8.30;;
8944;SDS011;4507;40.232;29.132;2023-05-10T11:42:00;10.40;;;8.60;;
8944;SDS011;4507;40.232;29.132;2023-05-10T11:44:29;13.23;;;9.87;;
8944;SDS011;4507;40.232;29.132;2023-05-10T11:47:00;16.87;;;9.60;;
8944;SDS011;4507;40.232;29.132;2023-05-10T11:49:30;13.73;;;11.10;;
8944;SDS011;4507;40.232;29.132;2023-05-10T11:52:03;12.23;;;8.90;;
8944;SDS011;4507;40.232;29.132;2023-05-10T11:54:33;13.13;;;9.00;;
8944;SDS011;4507;40.232;29.132;2023-05-10T11:57:03;14.57;;;9.07;;
8944;SDS011;4507;40.232;29.132;2023-05-10T11:59:32;12.83;;;9.37;;
8944;SDS011;4507;40.232;29.132;2023-05-10T12:02:02;16.33;;;11.30;;
8944;SDS011;4507;40.232;29.132;2023-05-10T12:04:31;14.17;;;10.70;;
8944;SDS011;4507;40.232;29.132;2023-05-10T12:07:00;13.47;;;9.37;;
8944;SDS011;4507;40.232;29.132;2023-05-10T12:09:30;11.00;;;9.70;;
8944;SDS011;4507;40.232;29.132;2023-05-10T12:12:09;11.83;;;9.70;;
8944;SDS011;4507;40.232;29.132;2023-05-10T12:14:38;15.47;;;10.70;;
8944;SDS011;4507;40.232;29.132;2023-05-10T12:17:12;14.50;;;9.53;;
8944;SDS011;4507;40.232;29.132;2023-05-10T12:19:41;10.10;;;8.50;;
8944;SDS011;4507;40.232;29.132;2023-05-10T12:22:10;10.93;;;8.60;;
8944;SDS011;4507;40.232;29.132;2023-05-10T12:24:39;9.57;;;7.90;;
8944;SDS011;4507;40.232;29.132;2023-05-10T12:27:08;8.70;;;7.80;;
8944;SDS011;4507;40.232;29.132;2023-05-10T12:29:41;13.37;;;8.23;;
8944;SDS011;4507;40.232;29.132;2023-05-10T12:32:13;8.03;;;7.23;;
8944;SDS011;4507;40.232;29.132;2023-05-10T12:34:42;7.67;;;6.97;;
8944;SDS011;4507;40.232;29.132;2023-05-10T12:37:14;12.67;;;7.80;;
8944;SDS011;4507;40.232;29.132;2023-05-10T12:39:44;9.27;;;7.10;;
8944;SDS011;4507;40.232;29.132;2023-05-10T12:42:13;8.20;;;7.40;;
8944;SDS011;4507;40.232;29.132;2023-05-10T12:44:42;9.47;;;7.60;;
8944;SDS011;4507;40.232;29.132;2023-05-10T12:47:12;11.10;;;8.90;;
8944;SDS011;4507;40.232;29.132;2023-05-10T12:49:41;8.90;;;7.40;;
8944;SDS011;4507;40.232;29.132;2023-05-10T12:52:10;8.53;;;7.73;;
8944;SDS011;4507;40.232;29.132;2023-05-10T12:54:39;15.53;;;9.87;;
8944;SDS011;4507;40.232;29.132;2023-05-10T12:57:10;8.63;;;7.23;;
8944;SDS011;4507;40.232;29.132;2023-05-10T12:59:39;7.67;;;6.87;;
8944;SDS011;4507;40.232;29.132;2023-05-10T13:02:08;12.63;;;8.17;;
8944;SDS011;4507;40.232;29.132;2023-05-10T13:04:38;14.97;;;11.00;;
8944;SDS011;4507;40.232;29.132;2023-05-10T13:07:08;43.10;;;36.07;;
8944;SDS011;4507;40.232;29.132;2023-05-10T13:09:37;29.37;;;26.13;;
8944;SDS011;4507;40.232;29.132;2023-05-10T13:12:06;43.23;;;37.87;;
8944;SDS011;4507;40.232;29.132;2023-05-10T13:14:36;60.70;;;54.13;;
8944;SDS011;4507;40.232;29.132;2023-05-10T13:17:07;96.10;;;83.23;;
8944;SDS011;4507;40.232;29.132;2023-05-10T13:19:36;52.43;;;46.83;;
8944;SDS011;4507;40.232;29.132;2023-05-10T13:22:06;37.23;;;33.17;;
8944;SDS011;4507;40.232;29.132;2023-05-10T13:24:35;23.53;;;19.30;;
8944;SDS011;4507;40.232;29.132;2023-05-10T13:27:04;65.93;;;54.20;;
8944;SDS011;4507;40.232;29.132;2023-05-10T13:29:33;86.03;;;75.63;;
8944;SDS011;4507;40.232;29.132;2023-05-10T13:32:02;86.93;;;77.67;;
8944;SDS011;4507;40.232;29.132;2023-05-10T13:34:31;116.47;;;104.70;;
8944;SDS011;4507;40.232;29.132;2023-05-10T13:37:02;92.70;;;83.00;;
8944;SDS011;4507;40.232;29.132;2023-05-10T13:39:32;25.00;;;22.37;;
8944;SDS011;4507;40.232;29.132;2023-05-10T13:42:03;14.17;;;12.67;;
8944;SDS011;4507;40.232;29.132;2023-05-10T13:44:33;9.03;;;7.63;;
8944;SDS011;4507;40.232;29.132;2023-05-10T13:47:02;8.40;;;7.50;;
8944;SDS011;4507;40.232;29.132;2023-05-10T13:49:31;7.90;;;7.07;;
8944;SDS011;4507;40.232;29.132;2023-05-10T13:52:00;8.50;;;7.67;;
8944;SDS011;4507;40.232;29.132;2023-05-10T13:54:35;7.60;;;6.83;;
8944;SDS011;4507;40.232;29.132;2023-05-10T13:57:04;10.00;;;7.07;;
8944;SDS011;4507;40.232;29.132;2023-05-10T13:59:34;8.57;;;7.67;;
8944;SDS011;4507;40.232;29.132;2023-05-10T14:02:04;8.17;;;6.60;;
8944;SDS011;4507;40.232;29.132;2023-05-10T14:04:33;8.73;;;5.70;;
8944;SDS011;4507;40.232;29.132;2023-05-10T14:07:02;10.77;;;7.70;;
8944;SDS011;4507;40.232;29.132;2023-05-10T14:09:31;11.23;;;9.13;;
8944;SDS011;4507;40.232;29.132;2023-05-10T14:12:01;11.17;;;8.67;;
8944;SDS011;4507;40.232;29.132;2023-05-10T14:14:30;13.83;;;9.53;;
8944;SDS011;4507;40.232;29.132;2023-05-10T14:17:00;8.20;;;6.47;;
8944;SDS011;4507;40.232;29.132;2023-05-10T14:19:28;6.97;;;5.13;;
8944;SDS011;4507;40.232;29.132;2023-05-10T14:21:59;9.07;;;6.00;;
8944;SDS011;4507;40.232;29.132;2023-05-10T14:24:28;6.83;;;5.40;;
8944;SDS011;4507;40.232;29.132;2023-05-10T14:26:56;8.63;;;5.70;;
8944;SDS011;4507;40.232;29.132;2023-05-10T14:29:27;12.30;;;7.10;;
8944;SDS011;4507;40.232;29.132;2023-05-10T14:31:56;13.00;;;6.23;;
8944;SDS011;4507;40.232;29.132;2023-05-10T14:34:25;10.63;;;8.93;;
8944;SDS011;4507;40.232;29.132;2023-05-10T14:36:54;11.67;;;9.63;;
8944;SDS011;4507;40.232;29.132;2023-05-10T14:39:23;10.43;;;7.10;;
8944;SDS011;4507;40.232;29.132;2023-05-10T14:41:52;12.90;;;8.47;;
8944;SDS011;4507;40.232;29.132;2023-05-10T14:44:21;12.07;;;7.30;;
8944;SDS011;4507;40.232;29.132;2023-05-10T14:46:51;8.00;;;5.60;;
8944;SDS011;4507;40.232;29.132;2023-05-10T14:49:21;8.30;;;7.50;;
8944;SDS011;4507;40.232;29.132;2023-05-10T14:51:52;7.10;;;6.40;;
8944;SDS011;4507;40.232;29.132;2023-05-10T14:54:22;8.83;;;6.30;;
8944;SDS011;4507;40.232;29.132;2023-05-10T14:56:51;12.70;;;7.90;;
8944;SDS011;4507;40.232;29.132;2023-05-10T14:59:20;14.33;;;11.10;;
8944;SDS011;4507;40.232;29.132;2023-05-10T15:01:49;12.40;;;9.97;;
8944;SDS011;4507;40.232;29.132;2023-05-10T15:04:21;11.97;;;7.50;;
8944;SDS011;4507;40.232;29.132;2023-05-10T15:06:54;8.63;;;6.80;;
8944;SDS011;4507;40.232;29.132;2023-05-10T15:09:26;13.00;;;7.33;;
8944;SDS011;4507;40.232;29.132;2023-05-10T15:11:55;8.67;;;7.30;;
8944;SDS011;4507;40.232;29.132;2023-05-10T15:14:24;9.50;;;7.73;;
8944;SDS011;4507;40.232;29.132;2023-05-10T15:16:55;6.50;;;5.90;;
8944;SDS011;4507;40.232;29.132;2023-05-10T15:19:25;6.70;;;6.20;;
8944;SDS011;4507;40.232;29.132;2023-05-10T15:21:55;6.70;;;6.00;;
8944;SDS011;4507;40.232;29.132;2023-05-10T15:24:24;5.90;;;5.40;;